sensor_id;sensor_type;location;lat;lon;timestamp;temperature;humidity
66257;DHT22;53049;43.446;3.698;2023-12-20T00:01:32;8.90;99.90
66257;DHT22;53049;43.446;3.698;2023-12-20T00:03:59;8.90;99.90
66257;DHT22;53049;43.446;3.698;2023-12-20T00:06:24;8.90;99.90
66257;DHT22;53049;43.446;3.698;2023-12-20T00:08:50;8.90;99.90
66257;DHT22;53049;43.446;3.698;2023-12-20T00:11:16;8.90;99.90
66257;DHT22;53049;43.446;3.698;2023-12-20T00:13:41;8.80;99.90
66257;DHT22;53049;43.446;3.698;2023-12-20T00:16:07;8.80;99.90
66257;DHT22;53049;43.446;3.698;2023-12-20T00:18:33;8.80;99.90
66257;DHT22;53049;43.446;3.698;2023-12-20T00:20:58;8.80;99.90
66257;DHT22;53049;43.446;3.698;2023-12-20T00:23:24;8.80;99.90
66257;DHT22;53049;43.446;3.698;2023-12-20T00:25:50;8.80;99.90
66257;DHT22;53049;43.446;3.698;2023-12-20T00:28:15;8.80;99.90
66257;DHT22;53049;43.446;3.698;2023-12-20T00:30:41;8.80;99.90
66257;DHT22;53049;43.446;3.698;2023-12-20T00:33:07;8.90;99.90
66257;DHT22;53049;43.446;3.698;2023-12-20T00:35:32;8.90;99.90
66257;DHT22;53049;43.446;3.698;2023-12-20T00:37:58;8.90;99.90
66257;DHT22;53049;43.446;3.698;2023-12-20T00:40:24;8.90;99.90
66257;DHT22;53049;43.446;3.698;2023-12-20T00:42:50;8.90;99.90
66257;DHT22;53049;43.446;3.698;2023-12-20T00:45:16;8.90;99.90
66257;DHT22;53049;43.446;3.698;2023-12-20T00:47:41;8.90;99.90
66257;DHT22;53049;43.446;3.698;2023-12-20T00:50:08;8.90;99.90
66257;DHT22;53049;43.446;3.698;2023-12-20T00:52:34;8.90;99.90
66257;DHT22;53049;43.446;3.698;2023-12-20T00:55:00;8.90;99.90
66257;DHT22;53049;43.446;3.698;2023-12-20T00:57:25;8.90;99.90
66257;DHT22;53049;43.446;3.698;2023-12-20T00:59:51;8.90;99.90
66257;DHT22;53049;43.446;3.698;2023-12-20T01:02:17;8.90;99.90
66257;DHT22;53049;43.446;3.698;2023-12-20T01:04:43;8.90;99.90
66257;DHT22;53049;43.446;3.698;2023-12-20T01:07:08;8.90;99.90
66257;DHT22;53049;43.446;3.698;2023-12-20T01:09:34;8.90;99.90
66257;DHT22;53049;43.446;3.698;2023-12-20T01:12:00;8.90;99.90
66257;DHT22;53049;43.446;3.698;2023-12-20T01:14:25;8.90;99.90
66257;DHT22;53049;43.446;3.698;2023-12-20T01:16:51;8.90;99.90
66257;DHT22;53049;43.446;3.698;2023-12-20T01:19:16;8.90;99.90
66257;DHT22;53049;43.446;3.698;2023-12-20T01:21:42;8.90;99.90
66257;DHT22;53049;43.446;3.698;2023-12-20T01:24:08;8.90;99.90
66257;DHT22;53049;43.446;3.698;2023-12-20T01:26:34;8.90;99.90
66257;DHT22;53049;43.446;3.698;2023-12-20T01:29:00;8.90;99.90
66257;DHT22;53049;43.446;3.698;2023-12-20T01:31:26;8.90;99.90
66257;DHT22;53049;43.446;3.698;2023-12-20T01:33:53;8.90;99.90
66257;DHT22;53049;43.446;3.698;2023-12-20T01:36:18;8.90;99.90
66257;DHT22;53049;43.446;3.698;2023-12-20T01:38:45;9.00;99.90
66257;DHT22;53049;43.446;3.698;2023-12-20T01:41:10;9.00;99.90
66257;DHT22;53049;43.446;3.698;2023-12-20T01:43:36;9.00;99.90
66257;DHT22;53049;43.446;3.698;2023-12-20T01:46:02;9.00;99.90
66257;DHT22;53049;43.446;3.698;2023-12-20T01:48:29;9.10;99.90
66257;DHT22;53049;43.446;3.698;2023-12-20T01:50:55;9.10;99.90
66257;DHT22;53049;43.446;3.698;2023-12-20T01:53:22;9.10;99.90
66257;DHT22;53049;43.446;3.698;2023-12-20T01:55:50;9.10;99.90
66257;DHT22;53049;43.446;3.698;2023-12-20T01:58:18;9.10;99.90
66257;DHT22;53049;43.446;3.698;2023-12-20T02:00:44;9.10;99.90
66257;DHT22;53049;43.446;3.698;2023-12-20T02:03:10;9.10;99.90
66257;DHT22;53049;43.446;3.698;2023-12-20T02:05:38;9.10;99.90
66257;DHT22;53049;43.446;3.698;2023-12-20T02:08:04;9.10;99.90
66257;DHT22;53049;43.446;3.698;2023-12-20T02:10:31;9.10;99.90
66257;DHT22;53049;43.446;3.698;2023-12-20T02:12:57;9.10;99.90
66257;DHT22;53049;43.446;3.698;2023-12-20T02:15:23;9.20;99.90
66257;DHT22;53049;43.446;3.698;2023-12-20T02:17:49;9.20;99.90
66257;DHT22;53049;43.446;3.698;2023-12-20T02:20:15;9.20;99.90
66257;DHT22;53049;43.446;3.698;2023-12-20T02:22:40;9.20;99.90
66257;DHT22;53049;43.446;3.698;2023-12-20T02:25:07;9.30;99.90
66257;DHT22;53049;43.446;3.698;2023-12-20T02:27:34;9.30;99.90
66257;DHT22;53049;43.446;3.698;2023-12-20T02:30:00;9.30;99.90
66257;DHT22;53049;43.446;3.698;2023-12-20T02:32:25;9.40;99.90
66257;DHT22;53049;43.446;3.698;2023-12-20T02:34:52;9.40;99.90
66257;DHT22;53049;43.446;3.698;2023-12-20T02:37:17;9.40;99.90
66257;DHT22;53049;43.446;3.698;2023-12-20T02:39:43;9.40;99.90
66257;DHT22;53049;43.446;3.698;2023-12-20T02:42:10;9.40;99.90
66257;DHT22;53049;43.446;3.698;2023-12-20T02:44:36;9.40;99.90
66257;DHT22;53049;43.446;3.698;2023-12-20T02:47:02;9.30;99.90
66257;DHT22;53049;43.446;3.698;2023-12-20T02:49:28;9.30;99.90
66257;DHT22;53049;43.446;3.698;2023-12-20T02:51:54;9.30;99.90
66257;DHT22;53049;43.446;3.698;2023-12-20T02:54:19;9.30;99.90
66257;DHT22;53049;43.446;3.698;2023-12-20T02:56:45;9.30;99.90
66257;DHT22;53049;43.446;3.698;2023-12-20T02:59:10;9.30;99.90
66257;DHT22;53049;43.446;3.698;2023-12-20T03:01:44;9.40;99.90
66257;DHT22;53049;43.446;3.698;2023-12-20T03:04:11;9.40;99.90
66257;DHT22;53049;43.446;3.698;2023-12-20T03:06:36;9.40;99.90
66257;DHT22;53049;43.446;3.698;2023-12-20T03:09:02;9.40;99.90
66257;DHT22;53049;43.446;3.698;2023-12-20T03:11:28;9.50;99.90
66257;DHT22;53049;43.446;3.698;2023-12-20T03:13:54;9.50;99.90
66257;DHT22;53049;43.446;3.698;2023-12-20T03:16:21;9.50;99.90
66257;DHT22;53049;43.446;3.698;2023-12-20T03:18:47;9.50;99.90
66257;DHT22;53049;43.446;3.698;2023-12-20T03:21:13;9.50;99.90
66257;DHT22;53049;43.446;3.698;2023-12-20T03:23:39;9.50;99.90
66257;DHT22;53049;43.446;3.698;2023-12-20T03:26:08;9.50;99.90
66257;DHT22;53049;43.446;3.698;2023-12-20T03:28:34;9.50;99.90
66257;DHT22;53049;43.446;3.698;2023-12-20T03:31:01;9.50;99.90
66257;DHT22;53049;43.446;3.698;2023-12-20T03:33:28;9.50;99.90
66257;DHT22;53049;43.446;3.698;2023-12-20T03:35:53;9.50;99.90
66257;DHT22;53049;43.446;3.698;2023-12-20T03:38:19;9.50;99.90
66257;DHT22;53049;43.446;3.698;2023-12-20T03:40:45;9.50;99.90
66257;DHT22;53049;43.446;3.698;2023-12-20T03:43:10;9.50;99.90
66257;DHT22;53049;43.446;3.698;2023-12-20T03:45:36;9.50;99.90
66257;DHT22;53049;43.446;3.698;2023-12-20T03:48:01;9.50;99.90
66257;DHT22;53049;43.446;3.698;2023-12-20T03:50:27;9.50;99.90
66257;DHT22;53049;43.446;3.698;2023-12-20T03:52:53;9.50;99.90
66257;DHT22;53049;43.446;3.698;2023-12-20T03:55:19;9.50;99.90
66257;DHT22;53049;43.446;3.698;2023-12-20T03:57:44;9.50;99.90
66257;DHT22;53049;43.446;3.698;2023-12-20T04:00:11;9.50;99.90
66257;DHT22;53049;43.446;3.698;2023-12-20T04:02:41;9.50;99.90
66257;DHT22;53049;43.446;3.698;2023-12-20T04:05:08;9.50;99.90
66257;DHT22;53049;43.446;3.698;2023-12-20T04:07:34;9.50;99.90
66257;DHT22;53049;43.446;3.698;2023-12-20T04:10:00;9.60;99.90
66257;DHT22;53049;43.446;3.698;2023-12-20T04:12:27;9.60;99.90
66257;DHT22;53049;43.446;3.698;2023-12-20T04:14:53;9.60;99.90
66257;DHT22;53049;43.446;3.698;2023-12-20T04:17:20;9.60;99.90
66257;DHT22;53049;43.446;3.698;2023-12-20T04:19:51;9.60;99.90
66257;DHT22;53049;43.446;3.698;2023-12-20T04:22:20;9.60;99.90
66257;DHT22;53049;43.446;3.698;2023-12-20T04:24:45;9.70;99.90
66257;DHT22;53049;43.446;3.698;2023-12-20T04:27:13;9.70;99.90
66257;DHT22;53049;43.446;3.698;2023-12-20T04:29:38;9.70;99.90
66257;DHT22;53049;43.446;3.698;2023-12-20T04:32:04;9.70;99.90
66257;DHT22;53049;43.446;3.698;2023-12-20T04:34:30;9.70;99.90
66257;DHT22;53049;43.446;3.698;2023-12-20T04:36:56;9.70;99.90
66257;DHT22;53049;43.446;3.698;2023-12-20T04:39:21;9.70;99.90
66257;DHT22;53049;43.446;3.698;2023-12-20T04:41:47;9.70;99.90
66257;DHT22;53049;43.446;3.698;2023-12-20T04:44:13;9.60;99.90
66257;DHT22;53049;43.446;3.698;2023-12-20T04:46:39;9.70;99.90
66257;DHT22;53049;43.446;3.698;2023-12-20T04:49:05;9.70;99.90
66257;DHT22;53049;43.446;3.698;2023-12-20T04:51:33;9.70;99.90
66257;DHT22;53049;43.446;3.698;2023-12-20T04:53:59;9.60;99.90
66257;DHT22;53049;43.446;3.698;2023-12-20T04:56:25;9.60;99.90
66257;DHT22;53049;43.446;3.698;2023-12-20T04:58:51;9.70;99.90
66257;DHT22;53049;43.446;3.698;2023-12-20T05:01:16;9.60;99.90
66257;DHT22;53049;43.446;3.698;2023-12-20T05:03:42;9.60;99.90
66257;DHT22;53049;43.446;3.698;2023-12-20T05:06:08;9.70;99.90
66257;DHT22;53049;43.446;3.698;2023-12-20T05:08:34;9.70;99.90
66257;DHT22;53049;43.446;3.698;2023-12-20T05:11:00;9.70;99.90
66257;DHT22;53049;43.446;3.698;2023-12-20T05:13:26;9.80;99.90
66257;DHT22;53049;43.446;3.698;2023-12-20T05:15:52;9.80;99.90
66257;DHT22;53049;43.446;3.698;2023-12-20T05:18:17;9.70;99.90
66257;DHT22;53049;43.446;3.698;2023-12-20T05:20:43;9.80;99.90
66257;DHT22;53049;43.446;3.698;2023-12-20T05:23:09;9.80;99.90
66257;DHT22;53049;43.446;3.698;2023-12-20T05:25:34;9.70;99.90
66257;DHT22;53049;43.446;3.698;2023-12-20T05:28:00;9.80;99.90
66257;DHT22;53049;43.446;3.698;2023-12-20T05:30:26;9.80;99.90
66257;DHT22;53049;43.446;3.698;2023-12-20T05:32:52;9.80;99.90
66257;DHT22;53049;43.446;3.698;2023-12-20T05:35:17;9.80;99.90
66257;DHT22;53049;43.446;3.698;2023-12-20T05:37:43;9.80;99.90
66257;DHT22;53049;43.446;3.698;2023-12-20T05:40:09;9.90;99.90
66257;DHT22;53049;43.446;3.698;2023-12-20T05:42:36;9.90;99.90
66257;DHT22;53049;43.446;3.698;2023-12-20T05:45:03;9.90;99.90
66257;DHT22;53049;43.446;3.698;2023-12-20T05:47:29;9.90;99.90
66257;DHT22;53049;43.446;3.698;2023-12-20T05:49:54;10.00;99.90
66257;DHT22;53049;43.446;3.698;2023-12-20T05:52:20;10.00;99.90
66257;DHT22;53049;43.446;3.698;2023-12-20T05:54:46;10.00;99.90
66257;DHT22;53049;43.446;3.698;2023-12-20T05:57:11;10.00;99.90
66257;DHT22;53049;43.446;3.698;2023-12-20T05:59:37;10.10;99.90
66257;DHT22;53049;43.446;3.698;2023-12-20T06:02:04;10.10;99.90
66257;DHT22;53049;43.446;3.698;2023-12-20T06:04:30;10.10;99.90
66257;DHT22;53049;43.446;3.698;2023-12-20T06:06:56;10.10;99.90
66257;DHT22;53049;43.446;3.698;2023-12-20T06:09:21;10.10;99.90
66257;DHT22;53049;43.446;3.698;2023-12-20T06:11:47;10.10;99.90
66257;DHT22;53049;43.446;3.698;2023-12-20T06:14:13;10.00;99.90
66257;DHT22;53049;43.446;3.698;2023-12-20T06:16:38;10.00;99.90
66257;DHT22;53049;43.446;3.698;2023-12-20T06:19:04;10.10;99.90
66257;DHT22;53049;43.446;3.698;2023-12-20T06:21:30;10.10;99.90
66257;DHT22;53049;43.446;3.698;2023-12-20T06:23:55;10.10;99.90
66257;DHT22;53049;43.446;3.698;2023-12-20T06:26:21;10.20;99.90
66257;DHT22;53049;43.446;3.698;2023-12-20T06:28:47;10.20;99.90
66257;DHT22;53049;43.446;3.698;2023-12-20T06:31:12;10.30;99.90
66257;DHT22;53049;43.446;3.698;2023-12-20T06:33:38;10.30;99.90
66257;DHT22;53049;43.446;3.698;2023-12-20T06:36:06;10.30;99.90
66257;DHT22;53049;43.446;3.698;2023-12-20T06:38:32;10.40;99.90
66257;DHT22;53049;43.446;3.698;2023-12-20T06:40:58;10.40;99.90
66257;DHT22;53049;43.446;3.698;2023-12-20T06:43:24;10.40;99.90
66257;DHT22;53049;43.446;3.698;2023-12-20T06:45:49;10.40;99.90
66257;DHT22;53049;43.446;3.698;2023-12-20T06:48:16;10.40;99.90
66257;DHT22;53049;43.446;3.698;2023-12-20T06:50:42;10.40;99.90
66257;DHT22;53049;43.446;3.698;2023-12-20T06:53:07;10.40;99.90
66257;DHT22;53049;43.446;3.698;2023-12-20T06:55:35;10.40;99.90
66257;DHT22;53049;43.446;3.698;2023-12-20T06:58:02;10.40;99.90
66257;DHT22;53049;43.446;3.698;2023-12-20T07:00:27;10.40;99.90
66257;DHT22;53049;43.446;3.698;2023-12-20T07:02:53;10.50;99.90
66257;DHT22;53049;43.446;3.698;2023-12-20T07:05:19;10.50;99.90
66257;DHT22;53049;43.446;3.698;2023-12-20T07:07:46;10.40;99.90
66257;DHT22;53049;43.446;3.698;2023-12-20T07:10:12;10.40;99.90
66257;DHT22;53049;43.446;3.698;2023-12-20T07:12:38;10.30;99.90
66257;DHT22;53049;43.446;3.698;2023-12-20T07:15:04;10.30;99.90
66257;DHT22;53049;43.446;3.698;2023-12-20T07:17:32;10.40;99.90
66257;DHT22;53049;43.446;3.698;2023-12-20T07:19:58;10.20;99.90
66257;DHT22;53049;43.446;3.698;2023-12-20T07:22:24;10.10;99.90
66257;DHT22;53049;43.446;3.698;2023-12-20T07:24:50;10.10;99.90
66257;DHT22;53049;43.446;3.698;2023-12-20T07:27:17;10.10;99.90
66257;DHT22;53049;43.446;3.698;2023-12-20T07:29:43;10.10;99.90
66257;DHT22;53049;43.446;3.698;2023-12-20T07:32:09;10.10;99.90
66257;DHT22;53049;43.446;3.698;2023-12-20T07:34:34;10.00;99.90
66257;DHT22;53049;43.446;3.698;2023-12-20T07:37:00;10.00;99.90
66257;DHT22;53049;43.446;3.698;2023-12-20T07:39:26;10.00;99.90
66257;DHT22;53049;43.446;3.698;2023-12-20T07:41:51;10.00;99.90
66257;DHT22;53049;43.446;3.698;2023-12-20T07:44:17;9.80;99.90
66257;DHT22;53049;43.446;3.698;2023-12-20T07:46:43;9.70;99.90
66257;DHT22;53049;43.446;3.698;2023-12-20T07:49:08;9.60;99.90
66257;DHT22;53049;43.446;3.698;2023-12-20T07:51:35;9.70;99.90
66257;DHT22;53049;43.446;3.698;2023-12-20T07:54:01;9.70;99.90
66257;DHT22;53049;43.446;3.698;2023-12-20T07:56:26;9.70;99.90
66257;DHT22;53049;43.446;3.698;2023-12-20T07:58:53;9.80;99.90
66257;DHT22;53049;43.446;3.698;2023-12-20T08:01:18;9.70;99.90
66257;DHT22;53049;43.446;3.698;2023-12-20T08:03:44;9.80;99.90
66257;DHT22;53049;43.446;3.698;2023-12-20T08:06:10;9.80;99.90
66257;DHT22;53049;43.446;3.698;2023-12-20T08:08:35;9.80;99.90
66257;DHT22;53049;43.446;3.698;2023-12-20T08:11:01;9.80;99.90
66257;DHT22;53049;43.446;3.698;2023-12-20T08:13:27;9.90;99.90
66257;DHT22;53049;43.446;3.698;2023-12-20T08:15:53;9.80;99.90
66257;DHT22;53049;43.446;3.698;2023-12-20T08:18:19;9.90;99.90
66257;DHT22;53049;43.446;3.698;2023-12-20T08:20:45;9.90;99.90
66257;DHT22;53049;43.446;3.698;2023-12-20T08:23:11;10.00;99.90
66257;DHT22;53049;43.446;3.698;2023-12-20T08:25:36;10.00;99.90
66257;DHT22;53049;43.446;3.698;2023-12-20T08:28:03;10.00;99.90
66257;DHT22;53049;43.446;3.698;2023-12-20T08:30:29;10.10;99.90
66257;DHT22;53049;43.446;3.698;2023-12-20T08:32:56;10.00;99.90
66257;DHT22;53049;43.446;3.698;2023-12-20T08:35:22;10.10;99.90
66257;DHT22;53049;43.446;3.698;2023-12-20T08:37:47;10.10;99.90
66257;DHT22;53049;43.446;3.698;2023-12-20T08:40:13;10.10;99.90
66257;DHT22;53049;43.446;3.698;2023-12-20T08:42:39;10.20;99.90
66257;DHT22;53049;43.446;3.698;2023-12-20T08:45:05;10.20;99.90
66257;DHT22;53049;43.446;3.698;2023-12-20T08:47:30;10.20;99.90
66257;DHT22;53049;43.446;3.698;2023-12-20T08:49:56;10.20;99.90
66257;DHT22;53049;43.446;3.698;2023-12-20T08:52:24;10.30;99.90
66257;DHT22;53049;43.446;3.698;2023-12-20T08:54:52;10.30;99.90
66257;DHT22;53049;43.446;3.698;2023-12-20T08:57:22;10.40;99.90
66257;DHT22;53049;43.446;3.698;2023-12-20T08:59:49;10.40;99.90
66257;DHT22;53049;43.446;3.698;2023-12-20T09:02:16;10.50;99.90
66257;DHT22;53049;43.446;3.698;2023-12-20T09:04:41;10.50;99.90
66257;DHT22;53049;43.446;3.698;2023-12-20T09:07:20;10.50;99.90
66257;DHT22;53049;43.446;3.698;2023-12-20T09:09:46;10.60;99.90
66257;DHT22;53049;43.446;3.698;2023-12-20T09:12:11;10.60;99.90
66257;DHT22;53049;43.446;3.698;2023-12-20T09:14:37;10.50;99.90
66257;DHT22;53049;43.446;3.698;2023-12-20T09:17:03;10.60;99.90
66257;DHT22;53049;43.446;3.698;2023-12-20T09:19:29;10.60;99.90
66257;DHT22;53049;43.446;3.698;2023-12-20T09:21:55;10.60;99.90
66257;DHT22;53049;43.446;3.698;2023-12-20T09:24:21;10.60;99.90
66257;DHT22;53049;43.446;3.698;2023-12-20T09:26:46;10.70;99.90
66257;DHT22;53049;43.446;3.698;2023-12-20T09:29:12;10.70;99.90
66257;DHT22;53049;43.446;3.698;2023-12-20T09:31:41;10.80;99.90
66257;DHT22;53049;43.446;3.698;2023-12-20T09:34:07;10.70;99.90
66257;DHT22;53049;43.446;3.698;2023-12-20T09:36:32;10.70;99.90
66257;DHT22;53049;43.446;3.698;2023-12-20T09:39:01;10.80;99.90
66257;DHT22;53049;43.446;3.698;2023-12-20T09:41:29;10.80;99.90
66257;DHT22;53049;43.446;3.698;2023-12-20T09:44:00;10.80;99.90
66257;DHT22;53049;43.446;3.698;2023-12-20T09:46:29;10.80;99.90
66257;DHT22;53049;43.446;3.698;2023-12-20T09:48:59;10.80;99.90
66257;DHT22;53049;43.446;3.698;2023-12-20T09:51:28;10.90;99.90
66257;DHT22;53049;43.446;3.698;2023-12-20T09:53:54;11.00;99.90
66257;DHT22;53049;43.446;3.698;2023-12-20T09:56:22;11.10;99.90
66257;DHT22;53049;43.446;3.698;2023-12-20T09:58:48;11.20;99.90
66257;DHT22;53049;43.446;3.698;2023-12-20T10:01:15;11.30;99.90
66257;DHT22;53049;43.446;3.698;2023-12-20T10:03:41;11.30;99.90
66257;DHT22;53049;43.446;3.698;2023-12-20T10:06:07;11.30;99.90
66257;DHT22;53049;43.446;3.698;2023-12-20T10:08:34;11.30;99.90
66257;DHT22;53049;43.446;3.698;2023-12-20T10:11:00;11.30;99.90
66257;DHT22;53049;43.446;3.698;2023-12-20T10:13:28;11.30;99.90
66257;DHT22;53049;43.446;3.698;2023-12-20T10:15:55;11.30;99.90
66257;DHT22;53049;43.446;3.698;2023-12-20T10:18:21;11.30;99.90
66257;DHT22;53049;43.446;3.698;2023-12-20T10:20:47;11.20;99.90
66257;DHT22;53049;43.446;3.698;2023-12-20T10:23:13;11.20;99.90
66257;DHT22;53049;43.446;3.698;2023-12-20T10:25:40;11.20;99.90
66257;DHT22;53049;43.446;3.698;2023-12-20T10:28:16;11.10;99.90
66257;DHT22;53049;43.446;3.698;2023-12-20T10:30:48;11.10;99.90
66257;DHT22;53049;43.446;3.698;2023-12-20T10:33:14;11.10;99.90
66257;DHT22;53049;43.446;3.698;2023-12-20T10:35:48;11.00;99.90
66257;DHT22;53049;43.446;3.698;2023-12-20T10:38:14;11.00;99.90
66257;DHT22;53049;43.446;3.698;2023-12-20T10:40:40;11.00;99.90
66257;DHT22;53049;43.446;3.698;2023-12-20T10:43:07;10.90;99.90
66257;DHT22;53049;43.446;3.698;2023-12-20T10:45:34;11.00;99.90
66257;DHT22;53049;43.446;3.698;2023-12-20T10:48:01;11.00;99.90
66257;DHT22;53049;43.446;3.698;2023-12-20T10:50:28;11.10;99.90
66257;DHT22;53049;43.446;3.698;2023-12-20T10:52:54;11.20;99.90
66257;DHT22;53049;43.446;3.698;2023-12-20T10:55:22;11.20;99.90
66257;DHT22;53049;43.446;3.698;2023-12-20T10:57:51;11.30;99.90
66257;DHT22;53049;43.446;3.698;2023-12-20T11:00:19;11.40;99.90
66257;DHT22;53049;43.446;3.698;2023-12-20T11:02:46;11.50;99.90
66257;DHT22;53049;43.446;3.698;2023-12-20T11:07:48;11.80;99.90
66257;DHT22;53049;43.446;3.698;2023-12-20T11:10:31;11.90;99.90
66257;DHT22;53049;43.446;3.698;2023-12-20T11:13:08;11.90;99.90
66257;DHT22;53049;43.446;3.698;2023-12-20T11:15:36;12.00;99.90
66257;DHT22;53049;43.446;3.698;2023-12-20T11:18:04;12.10;99.90
66257;DHT22;53049;43.446;3.698;2023-12-20T11:20:37;12.00;99.90
66257;DHT22;53049;43.446;3.698;2023-12-20T11:23:04;12.00;99.90
66257;DHT22;53049;43.446;3.698;2023-12-20T11:25:30;12.10;99.90
66257;DHT22;53049;43.446;3.698;2023-12-20T11:28:10;12.10;99.90
66257;DHT22;53049;43.446;3.698;2023-12-20T11:30:45;12.20;99.90
66257;DHT22;53049;43.446;3.698;2023-12-20T11:33:12;12.20;99.90
66257;DHT22;53049;43.446;3.698;2023-12-20T11:35:39;12.30;99.90
66257;DHT22;53049;43.446;3.698;2023-12-20T11:38:08;12.30;99.90
66257;DHT22;53049;43.446;3.698;2023-12-20T11:40:35;12.30;99.90
66257;DHT22;53049;43.446;3.698;2023-12-20T11:43:02;12.30;99.90
66257;DHT22;53049;43.446;3.698;2023-12-20T11:45:28;12.30;99.90
66257;DHT22;53049;43.446;3.698;2023-12-20T11:47:54;12.40;99.90
66257;DHT22;53049;43.446;3.698;2023-12-20T11:50:21;12.50;99.90
66257;DHT22;53049;43.446;3.698;2023-12-20T11:52:47;12.60;99.90
66257;DHT22;53049;43.446;3.698;2023-12-20T11:55:13;12.70;99.90
66257;DHT22;53049;43.446;3.698;2023-12-20T11:57:39;12.80;99.90
66257;DHT22;53049;43.446;3.698;2023-12-20T12:00:05;12.80;99.90
66257;DHT22;53049;43.446;3.698;2023-12-20T12:02:32;12.70;99.90
66257;DHT22;53049;43.446;3.698;2023-12-20T12:04:59;12.70;99.90
66257;DHT22;53049;43.446;3.698;2023-12-20T12:07:25;12.70;99.90
66257;DHT22;53049;43.446;3.698;2023-12-20T12:09:51;12.70;99.90
66257;DHT22;53049;43.446;3.698;2023-12-20T12:12:18;12.60;99.90
66257;DHT22;53049;43.446;3.698;2023-12-20T12:14:45;12.70;99.90
66257;DHT22;53049;43.446;3.698;2023-12-20T12:17:12;12.60;99.90
66257;DHT22;53049;43.446;3.698;2023-12-20T12:19:41;12.60;99.90
66257;DHT22;53049;43.446;3.698;2023-12-20T12:22:14;12.60;99.90
66257;DHT22;53049;43.446;3.698;2023-12-20T12:24:46;12.60;99.90
66257;DHT22;53049;43.446;3.698;2023-12-20T12:27:12;12.50;99.90
66257;DHT22;53049;43.446;3.698;2023-12-20T12:29:38;12.60;99.90
66257;DHT22;53049;43.446;3.698;2023-12-20T12:32:08;12.50;99.90
66257;DHT22;53049;43.446;3.698;2023-12-20T12:34:34;12.60;99.90
66257;DHT22;53049;43.446;3.698;2023-12-20T12:37:01;12.60;99.90
66257;DHT22;53049;43.446;3.698;2023-12-20T12:39:27;12.60;99.90
66257;DHT22;53049;43.446;3.698;2023-12-20T12:41:53;12.60;99.90
66257;DHT22;53049;43.446;3.698;2023-12-20T12:44:19;12.60;99.90
66257;DHT22;53049;43.446;3.698;2023-12-20T12:46:46;12.50;99.90
66257;DHT22;53049;43.446;3.698;2023-12-20T12:49:12;12.50;99.90
66257;DHT22;53049;43.446;3.698;2023-12-20T12:51:37;12.50;99.90
66257;DHT22;53049;43.446;3.698;2023-12-20T12:54:03;12.40;99.90
66257;DHT22;53049;43.446;3.698;2023-12-20T12:56:29;12.40;99.90
66257;DHT22;53049;43.446;3.698;2023-12-20T12:58:55;12.50;99.90
66257;DHT22;53049;43.446;3.698;2023-12-20T13:01:21;12.50;99.90
66257;DHT22;53049;43.446;3.698;2023-12-20T13:03:46;12.50;99.90
66257;DHT22;53049;43.446;3.698;2023-12-20T13:06:12;12.50;99.90
66257;DHT22;53049;43.446;3.698;2023-12-20T13:08:38;12.40;99.90
66257;DHT22;53049;43.446;3.698;2023-12-20T13:11:04;12.40;99.90
66257;DHT22;53049;43.446;3.698;2023-12-20T13:13:30;12.40;99.90
66257;DHT22;53049;43.446;3.698;2023-12-20T13:15:56;12.40;99.90
66257;DHT22;53049;43.446;3.698;2023-12-20T13:18:22;12.40;99.90
66257;DHT22;53049;43.446;3.698;2023-12-20T13:20:48;12.40;99.90
66257;DHT22;53049;43.446;3.698;2023-12-20T13:23:14;12.40;99.90
66257;DHT22;53049;43.446;3.698;2023-12-20T13:25:41;12.30;99.90
66257;DHT22;53049;43.446;3.698;2023-12-20T13:28:07;12.40;99.90
66257;DHT22;53049;43.446;3.698;2023-12-20T13:30:34;12.40;99.90
66257;DHT22;53049;43.446;3.698;2023-12-20T13:32:59;12.30;99.90
66257;DHT22;53049;43.446;3.698;2023-12-20T13:35:25;12.30;99.90
66257;DHT22;53049;43.446;3.698;2023-12-20T13:37:51;12.20;99.90
66257;DHT22;53049;43.446;3.698;2023-12-20T13:40:17;12.20;99.90
66257;DHT22;53049;43.446;3.698;2023-12-20T13:42:43;12.10;99.90
66257;DHT22;53049;43.446;3.698;2023-12-20T13:45:09;12.10;99.90
66257;DHT22;53049;43.446;3.698;2023-12-20T13:47:35;12.10;99.90
66257;DHT22;53049;43.446;3.698;2023-12-20T13:50:02;12.10;99.90
66257;DHT22;53049;43.446;3.698;2023-12-20T13:52:28;12.00;99.90
66257;DHT22;53049;43.446;3.698;2023-12-20T13:54:53;12.00;99.90
66257;DHT22;53049;43.446;3.698;2023-12-20T13:57:19;12.00;99.90
66257;DHT22;53049;43.446;3.698;2023-12-20T13:59:45;11.90;99.90
66257;DHT22;53049;43.446;3.698;2023-12-20T14:02:10;11.90;99.90
66257;DHT22;53049;43.446;3.698;2023-12-20T14:04:36;11.90;99.90
66257;DHT22;53049;43.446;3.698;2023-12-20T14:07:04;11.90;99.90
66257;DHT22;53049;43.446;3.698;2023-12-20T14:09:30;11.90;99.90
66257;DHT22;53049;43.446;3.698;2023-12-20T14:11:55;11.80;99.90
66257;DHT22;53049;43.446;3.698;2023-12-20T14:14:22;11.70;99.90
66257;DHT22;53049;43.446;3.698;2023-12-20T14:16:48;11.70;99.90
66257;DHT22;53049;43.446;3.698;2023-12-20T14:19:13;11.70;99.90
66257;DHT22;53049;43.446;3.698;2023-12-20T14:21:39;11.70;99.90
66257;DHT22;53049;43.446;3.698;2023-12-20T14:24:05;11.60;99.90
66257;DHT22;53049;43.446;3.698;2023-12-20T14:26:31;11.60;99.90
66257;DHT22;53049;43.446;3.698;2023-12-20T14:28:57;11.60;99.90
66257;DHT22;53049;43.446;3.698;2023-12-20T14:31:23;11.50;99.90
66257;DHT22;53049;43.446;3.698;2023-12-20T14:33:50;11.60;99.90
66257;DHT22;53049;43.446;3.698;2023-12-20T14:36:18;11.60;99.90
66257;DHT22;53049;43.446;3.698;2023-12-20T14:38:45;11.60;99.90
66257;DHT22;53049;43.446;3.698;2023-12-20T14:41:12;11.60;99.90
66257;DHT22;53049;43.446;3.698;2023-12-20T14:43:38;11.50;99.90
66257;DHT22;53049;43.446;3.698;2023-12-20T14:46:04;11.50;99.90
66257;DHT22;53049;43.446;3.698;2023-12-20T14:48:31;11.50;99.90
66257;DHT22;53049;43.446;3.698;2023-12-20T14:50:57;11.50;99.90
66257;DHT22;53049;43.446;3.698;2023-12-20T14:53:24;11.50;99.90
66257;DHT22;53049;43.446;3.698;2023-12-20T14:55:50;11.40;99.90
66257;DHT22;53049;43.446;3.698;2023-12-20T14:58:17;11.40;99.90
66257;DHT22;53049;43.446;3.698;2023-12-20T15:00:42;11.40;99.90
66257;DHT22;53049;43.446;3.698;2023-12-20T15:03:09;11.40;99.90
66257;DHT22;53049;43.446;3.698;2023-12-20T15:05:35;11.40;99.90
66257;DHT22;53049;43.446;3.698;2023-12-20T15:08:01;11.30;99.90
66257;DHT22;53049;43.446;3.698;2023-12-20T15:10:27;11.30;99.90
66257;DHT22;53049;43.446;3.698;2023-12-20T15:12:52;11.30;99.90
66257;DHT22;53049;43.446;3.698;2023-12-20T15:15:19;11.20;99.90
66257;DHT22;53049;43.446;3.698;2023-12-20T15:17:45;11.30;99.90
66257;DHT22;53049;43.446;3.698;2023-12-20T15:20:11;11.20;99.90
66257;DHT22;53049;43.446;3.698;2023-12-20T15:22:37;11.20;99.90
66257;DHT22;53049;43.446;3.698;2023-12-20T15:25:03;11.20;99.90
66257;DHT22;53049;43.446;3.698;2023-12-20T15:27:31;11.20;99.90
66257;DHT22;53049;43.446;3.698;2023-12-20T15:29:58;11.10;99.90
66257;DHT22;53049;43.446;3.698;2023-12-20T15:32:24;11.10;99.90
66257;DHT22;53049;43.446;3.698;2023-12-20T15:34:50;11.10;99.90